x

Ilm2 - 5 Miles Se Of Wrightsville Beach, Nc (41038) Weather Station

11:00am - Sun 20th Apr 2014 All times are EDT. -4 hours from GMT.

  • Wind
    31mph, 43mph gusts
  • Sea Temp 59°f
  • Air Temp 55°f
  • Sea Pressure 1017mb
  • Ilm2 - 5 Miles Se Of Wrightsville Beach, Nc
  • Ilm2 - 5 Miles Se Of Wrightsville Beach, Nc

More Historic Weather Station data

Upgrade to MSW Pro to gain access to the past 30 days of data for over 8000 Wavebouys and Weather Stations around the globe.

Join Pro

Comparision Forecast

View Surf forecast
   
Sun 04/20 11:00am 31 43 mph 1017mb 59f 55f
10:00am 27 36 mph 1017.1mb 59f 55f
9:00am 27 34 mph 1016.8mb 59f 56f
8:00am 29 34 mph 1017.1mb 59f 55f
7:00am 25 31 mph 1017.1mb 59f 55f
6:00am 29 36 mph 1014.9mb 59f 57f
5:00am 25 34 mph 1015.4mb 59f 58f
4:00am 29 34 mph 1015.4mb 59f 57f
3:00am 27 34 mph 1015.9mb 59f 57f
2:00am 29 38 mph 1016mb 59f 56f
1:00am 34 43 mph 1016.3mb 59f 55f
12:00am 27 31 mph 1017mb 59f 55f
Sat 04/19 11:00pm 31 38 mph 1016.2mb 59f 56f
10:00pm 34 43 mph 1017.3mb 59f 55f
9:00pm 31 36 mph 1016.6mb 59f 55f
8:00pm 29 36 mph 1017.2mb 59f 56f
7:00pm 29 36 mph 1016.6mb 59f 56f
6:00pm 27 31 mph 1016.4mb 59f 56f
5:00pm 29 36 mph 1015.4mb 59f 58f
4:00pm 29 34 mph 1015.2mb 59f 58f
3:00pm 31 38 mph 1015mb 59f 59f
2:00pm 31 38 mph 1015.5mb 59f 58f
1:00pm 25 29 mph 1016.3mb 59f 59f
12:00pm 25 27 mph 1016.8mb 59f 59f
11:00am 20 25 mph 1017.2mb 59f 59f
10:00am 27 34 mph 1015.6mb 59f 58f
9:00am 29 34 mph 1014.8mb 59f 57f
8:00am 22 27 mph 1016.1mb 59f 56f
7:00am 20 22 mph 1016.9mb 59f 56f
6:00am 25 31 mph 1015.9mb 59f 56f
5:00am 29 34 mph 1014.8mb 59f 56f
4:00am 31 36 mph 1015.6mb 59f 57f
3:00am 25 29 mph 1017mb 59f 55f
2:00am 29 36 mph 1017.5mb 59f 55f
1:00am 31 36 mph 1018.9mb 59f 55f
12:00am 29 34 mph 1018.8mb 59f 56f
Fri 04/18 11:00pm 29 36 mph 1020.3mb 59f 56f
10:00pm 27 29 mph 1022.1mb 59f 56f
9:00pm 18 25 mph 1023mb 59f 55f
8:00pm 25 27 mph 1021.5mb 59f 57f
7:00pm 16 20 mph 1022.2mb 59f 59f
6:00pm 16 18 mph 1022.7mb 59f 59f
5:00pm 20 22 mph 1022.7mb 59f 59f
4:00pm 18 20 mph 1023.7mb 59f 59f
3:00pm 18 20 mph 1024.6mb 59f 59f
2:00pm 13 16 mph 1025.7mb 59f 57f
1:00pm 13 18 mph 1026.6mb 59f 56f
12:00pm 16 18 mph 1027mb 59f 55f
11:00am 11 16 mph 1027.4mb 59f 54f
10:00am 13 18 mph 1027.6mb 59f 49f
9:00am 18 22 mph 1027.2mb 59f 49f
8:00am 18 20 mph 1027.3mb 59f 47f
7:00am 18 20 mph 1027.6mb 59f 49f
6:00am 20 22 mph 1026.9mb 59f 48f
5:00am 18 22 mph 1027.6mb 59f 49f
4:00am 20 25 mph 1027.3mb 59f 50f
3:00am 20 22 mph 1028.1mb 59f 51f
2:00am 22 27 mph 1027.8mb 60f 52f
1:00am 25 29 mph 1028.6mb 60f 54f
12:00am 20 25 mph 1029.2mb 60f 55f
Thu 04/17 11:00pm 20 25 mph 1029.7mb 60f 57f
10:00pm 20 25 mph 1029mb 60f 58f
9:00pm 22 27 mph 1028.9mb 60f 59f
8:00pm 20 25 mph 1028.8mb 60f 60f
7:00pm 25 29 mph 1028mb 60f 60f
6:00pm 18 22 mph 1028.7mb 60f 60f
5:00pm 20 25 mph 1029.1mb 60f 60f
4:00pm 18 20 mph 1029.7mb 60f 60f
3:00pm 18 22 mph 1030.5mb 60f 60f
2:00pm 16 20 mph 1030.8mb 60f 59f
1:00pm 18 22 mph 1031.1mb 60f 57f
12:00pm 20 22 mph 1031.8mb 60f 54f
11:00am 20 22 mph 1031.6mb 60f 52f
10:00am 20 25 mph 1031mb 60f 51f
9:00am 22 25 mph 1030.4mb 60f 50f
8:00am 27 31 mph 1029.3mb 60f 47f
7:00am 27 34 mph 1028.9mb 60f 47f
6:00am 27 31 mph 1028.8mb 60f 47f
5:00am 27 29 mph 1028.6mb 60f 48f
4:00am 27 29 mph 1029.1mb 60f 47f
3:00am 22 25 mph 1029.2mb 60f 48f
2:00am 22 27 mph 1029.5mb 60f 48f
1:00am 22 27 mph 1029.2mb 60f 49f
12:00am 27 34 mph 1029.3mb 60f 50f
Wed 04/16 11:00pm 25 29 mph 1028.8mb 60f 51f
10:00pm 25 29 mph 1028.8mb 60f 51f
9:00pm 22 27 mph 1028.8mb 60f 52f
8:00pm 20 25 mph 1027.9mb 60f 53f
7:00pm 20 25 mph 1027.4mb 60f 53f
6:00pm 16 20 mph 1027.2mb 60f 53f
5:00pm 18 22 mph 1027mb 60f 52f